Skyforest, CA (92385)

7:31 AM PST on January 24, 2017 (GMT -0800)
S.E. Lake Arrowhead | | Change Station
Active Advisory: Small Craft Advisory

Elev 5453 ft 34.24 °N, 117.17 °W | Updated 50 seconds ago

Mostly Cloudy
Mostly Cloudy
21.2 °F
Feels Like 21 °F
N
0.0
Wind Variable Wind from SSE

Today
High -- | Low -- °F
--% Chance of Precip.
Yesterday
High -- | Low -- °F
Precip. -- in
Pressure 29.82 in
Visibility 10.0 miles
Clouds Clear
Windchill 21 °F
Dew Point 20 °F
Humidity 98%
Rainfall 0.00 in
Snow Depth Not available.
6:50 AM 5:11 PM
Waning Crescent, 11% visible
METAR KL35 241515Z AUTO 00000KT 10SM CLR M13/M14 A2982 RMK AO2
Pressure 29.82 in
Visibility 10.0 miles
Clouds Clear
Windchill 21 °F
Dew Point 20 °F
Humidity 98%
Rainfall 0.00 in
Snow Depth Not available.
6:50 AM 5:11 PM
Waning Crescent, 11% visible
METAR KL35 241515Z AUTO 00000KT 10SM CLR M13/M14 A2982 RMK AO2

Get Your Daily Forecast Email!

Thanks for signing up!

Be on the lookout for a verification email in your inbox.

You'll start receiving the daily forecast at 8 AM.

×

10-Day Weather Forecast

Almanac

Astronomy

Jan. 24, 2017 Rise Set
Actual Time
Civil Twilight
Nautical Twilight
Astronomical Twilight
Moon
Length of Visible Light
Length of Day
Tomorrow will be .
, % of the Moon is Illuminated

Today's Extremes

State Highs State Lows

Community

WunderPhotos

Upload Photos

1,962,540 photos uploaded!

WunderBlog® & News

Nearby

Air Quality

  Air Quality AQ Index Pollutant
Not available.

Snow Depth

Station Depth Elevation

Earthquake Activity

City Distance Mag. Time & Date
Minimum magnitude displayed is 2.5.

Coastal Water Temperatures

Place Temperature

Stations

Nearby Weather Stations

Station Location Temp. Windchill Dew Point Humidity Wind Precip. Elev Updated Type
                   

Watches & Warnings

Small Craft Advisory
Issued: 2:06 AM PST Jan. 24, 2017 – National Weather Service

... Small Craft Advisory now in effect until 9 am PST this
morning...

See the coastal waters forecast (cwflox) for more details.

Precautionary/preparedness actions...

A Small Craft Advisory means that hazardous wind and sea
conditions will exist for small craft. Inexperienced mariners...
especially those operating smaller vessels should avoid
navigating in these conditions.



Rat